createdAt,value
2018-07-09T00:00:36.583Z,60.30
2018-07-09T00:03:06.707Z,60.40
2018-07-09T00:05:36.724Z,60.50
2018-07-09T00:08:04.490Z,60.00
2018-07-09T00:10:43.468Z,59.60
2018-07-09T00:13:10.874Z,59.50
2018-07-09T00:15:38.292Z,59.40
2018-07-09T00:18:05.764Z,59.40
2018-07-09T00:20:33.443Z,59.20
2018-07-09T00:23:01.097Z,59.20
2018-07-09T00:25:28.681Z,58.90
2018-07-09T00:27:56.087Z,59.00
2018-07-09T00:30:23.600Z,59.20
2018-07-09T00:32:57.738Z,59.20
2018-07-09T00:35:25.554Z,59.20
2018-07-09T00:37:52.960Z,59.40
2018-07-09T00:40:20.370Z,59.40
2018-07-09T00:42:48.337Z,59.30
2018-07-09T00:45:15.886Z,59.20
2018-07-09T00:47:43.319Z,59.10
2018-07-09T00:50:10.717Z,58.90
2018-07-09T00:52:38.156Z,59.20
2018-07-09T00:55:05.728Z,59.30
2018-07-09T00:57:33.338Z,59.60
2018-07-09T01:00:00.747Z,59.80
2018-07-09T01:02:28.309Z,59.70
2018-07-09T01:04:55.712Z,60.00
2018-07-09T01:07:23.118Z,59.90
2018-07-09T01:12:17.991Z,59.90
2018-07-09T01:14:45.415Z,59.70
2018-07-09T01:17:12.831Z,59.50
2018-07-09T01:19:40.305Z,59.40
2018-07-09T01:22:07.699Z,59.50
2018-07-09T01:24:35.098Z,59.30
2018-07-09T01:27:02.595Z,59.00
2018-07-09T01:29:30.021Z,58.90
2018-07-09T01:31:57.420Z,58.80
2018-07-09T01:34:24.805Z,58.90
2018-07-09T01:36:52.327Z,59.20
2018-07-09T01:39:19.728Z,59.20
2018-07-09T01:41:47.295Z,59.00
2018-07-09T01:44:14.718Z,58.80
2018-07-09T01:46:42.127Z,59.00
2018-07-09T01:49:09.514Z,59.20
2018-07-09T01:51:36.944Z,59.30
2018-07-09T01:54:04.392Z,59.80
2018-07-09T01:56:31.772Z,60.00
2018-07-09T01:58:59.143Z,59.90
2018-07-09T02:01:26.574Z,59.70
2018-07-09T02:03:53.999Z,60.80
2018-07-09T02:06:21.413Z,60.10
2018-07-09T02:08:48.795Z,60.20
2018-07-09T02:11:16.171Z,60.70
2018-07-09T02:13:43.551Z,61.30
2018-07-09T02:16:10.968Z,61.20
2018-07-09T02:18:38.383Z,61.20
2018-07-09T02:21:05.843Z,61.10
2018-07-09T02:23:33.202Z,61.60
2018-07-09T02:26:00.609Z,61.80
2018-07-09T02:28:28.029Z,61.60
2018-07-09T02:30:55.605Z,61.70
2018-07-09T02:33:22.991Z,62.10
2018-07-09T02:35:50.440Z,62.00
2018-07-09T02:40:52.418Z,62.00
2018-07-09T02:43:19.963Z,62.80
2018-07-09T02:45:47.412Z,62.70
2018-07-09T02:48:14.826Z,62.70
2018-07-09T02:53:09.737Z,62.50
2018-07-09T02:55:37.143Z,64.10
2018-07-09T02:58:04.900Z,64.10
2018-07-09T03:00:32.372Z,63.60
2018-07-09T03:02:59.767Z,63.50
2018-07-09T03:05:27.176Z,64.00
2018-07-09T03:07:54.598Z,64.30
2018-07-09T03:10:22.035Z,64.50
2018-07-09T03:12:49.479Z,64.40
2018-07-09T03:15:16.903Z,64.50
2018-07-09T03:17:44.317Z,65.10
2018-07-09T03:20:11.774Z,64.00
2018-07-09T03:22:39.483Z,63.80
2018-07-09T03:25:06.889Z,63.80
2018-07-09T03:27:34.321Z,63.80
2018-07-09T03:30:01.749Z,63.70
2018-07-09T03:32:29.163Z,63.60
2018-07-09T03:34:56.565Z,63.50
2018-07-09T03:37:23.996Z,63.80
2018-07-09T03:39:51.403Z,63.70
2018-07-09T03:42:19.018Z,63.50
2018-07-09T03:44:46.414Z,63.20
2018-07-09T03:47:13.852Z,62.80
2018-07-09T03:52:15.401Z,62.50
2018-07-09T03:54:42.814Z,62.20
2018-07-09T03:57:10.221Z,62.10
2018-07-09T03:59:37.659Z,62.00
2018-07-09T04:02:05.133Z,62.10
2018-07-09T04:04:32.559Z,62.20
2018-07-09T04:07:00.006Z,62.10
2018-07-09T04:09:27.382Z,62.10
2018-07-09T04:11:54.828Z,62.00
2018-07-09T04:14:22.264Z,62.00
2018-07-09T04:16:49.667Z,62.00
2018-07-09T04:19:17.093Z,62.10
2018-07-09T04:21:44.511Z,62.50
2018-07-09T04:24:11.915Z,63.10
2018-07-09T04:26:39.354Z,63.70
2018-07-09T04:29:06.785Z,64.10
2018-07-09T04:31:34.169Z,64.40
2018-07-09T04:34:01.564Z,64.60
2018-07-09T04:36:28.987Z,64.90
2018-07-09T04:39:55.936Z,65.00
2018-07-09T04:42:23.374Z,65.10
2018-07-09T04:44:50.814Z,64.80
2018-07-09T04:47:18.247Z,65.00
2018-07-09T04:49:45.664Z,65.30
2018-07-09T04:52:13.080Z,65.40
2018-07-09T04:54:40.527Z,65.30
2018-07-09T04:57:07.931Z,65.60
2018-07-09T04:59:35.521Z,65.60
2018-07-09T05:02:02.974Z,66.10
2018-07-09T05:04:30.379Z,66.20
2018-07-09T05:06:57.810Z,66.20
2018-07-09T05:09:25.240Z,66.20
2018-07-09T05:11:52.658Z,66.40
2018-07-09T05:14:20.142Z,66.70
2018-07-09T05:16:47.557Z,66.90
2018-07-09T05:19:15.002Z,67.10
2018-07-09T05:21:42.431Z,67.20
2018-07-09T05:24:09.846Z,67.70
2018-07-09T05:26:37.296Z,67.70
2018-07-09T05:31:32.100Z,67.50
2018-07-09T05:33:59.522Z,67.40
2018-07-09T05:36:26.949Z,67.80
2018-07-09T05:38:54.400Z,67.30
2018-07-09T05:41:21.893Z,67.10
2018-07-09T05:43:49.333Z,67.10
2018-07-09T05:46:16.748Z,66.80
2018-07-09T05:48:44.315Z,66.60
2018-07-09T05:51:11.756Z,66.30
2018-07-09T05:53:39.171Z,66.20
2018-07-09T05:56:06.822Z,65.90
2018-07-09T05:58:34.242Z,65.60
2018-07-09T06:01:01.679Z,65.70
2018-07-09T06:03:29.089Z,65.30
2018-07-09T06:05:56.531Z,64.40
2018-07-09T06:08:23.969Z,63.80
2018-07-09T06:13:18.853Z,63.50
2018-07-09T06:15:46.292Z,63.20
2018-07-09T06:18:15.544Z,63.10
2018-07-09T06:23:10.567Z,63.20
2018-07-09T06:25:37.961Z,63.20
2018-07-09T06:28:05.489Z,63.20
2018-07-09T06:30:33.032Z,63.50
2018-07-09T06:33:00.465Z,63.20
2018-07-09T06:35:28.056Z,63.00
2018-07-09T06:37:55.486Z,62.80
2018-07-09T06:40:23.003Z,62.40
2018-07-09T06:42:50.396Z,62.60
2018-07-09T06:45:17.968Z,62.10
2018-07-09T06:47:45.430Z,62.20
2018-07-09T06:52:40.259Z,61.40
2018-07-09T06:55:07.699Z,61.80
2018-07-09T06:57:35.120Z,61.30
2018-07-09T07:00:02.741Z,60.70
2018-07-09T07:02:30.198Z,60.50
2018-07-09T07:04:57.721Z,60.60
2018-07-09T07:07:25.155Z,60.50
2018-07-09T07:09:52.693Z,60.70
2018-07-09T07:12:20.230Z,61.00
2018-07-09T07:14:47.680Z,61.30
2018-07-09T07:17:15.280Z,61.60
2018-07-09T07:19:42.739Z,61.30
2018-07-09T07:22:10.119Z,60.00
2018-07-09T07:24:37.567Z,58.10
2018-07-09T07:27:05.210Z,57.10
2018-07-09T07:29:32.645Z,57.30
2018-07-09T07:32:00.091Z,57.40
2018-07-09T07:34:27.532Z,56.00
2018-07-09T07:36:55.189Z,54.80
2018-07-09T07:39:22.665Z,55.20
2018-07-09T07:41:50.123Z,54.50
2018-07-09T07:44:17.672Z,53.90
2018-07-09T07:46:45.151Z,53.60
2018-07-09T07:49:12.589Z,51.80
2018-07-09T07:51:39.993Z,51.00
2018-07-09T07:54:07.411Z,51.20
2018-07-09T07:56:34.852Z,51.50
2018-07-09T07:59:03.232Z,51.60
2018-07-09T08:01:30.644Z,49.80
2018-07-09T08:03:58.102Z,50.80
2018-07-09T08:06:25.509Z,51.00
2018-07-09T08:08:52.987Z,50.80
2018-07-09T08:11:20.451Z,50.40
2018-07-09T08:13:47.910Z,50.00
2018-07-09T08:16:15.486Z,49.40
2018-07-09T08:18:42.954Z,49.50
2018-07-09T08:21:10.402Z,49.80
2018-07-09T08:23:38.124Z,49.60
2018-07-09T08:26:05.563Z,49.70
2018-07-09T08:28:32.976Z,49.80
2018-07-09T08:31:00.704Z,48.90
2018-07-09T08:33:28.244Z,48.50
2018-07-09T08:35:56.054Z,47.40
2018-07-09T08:40:50.976Z,45.30
2018-07-09T08:43:18.395Z,46.10
2018-07-09T08:45:45.838Z,46.00
2018-07-09T08:48:13.247Z,46.40
2018-07-09T08:53:08.039Z,47.40
2018-07-09T08:55:35.778Z,47.00
2018-07-09T08:58:03.205Z,45.70
2018-07-09T09:00:31.691Z,44.30
2018-07-09T09:02:59.104Z,44.90
2018-07-09T09:05:26.497Z,44.20
2018-07-09T09:07:53.933Z,44.10
2018-07-09T09:10:21.392Z,44.40
2018-07-09T09:12:48.816Z,45.20
2018-07-09T09:15:16.223Z,42.70
2018-07-09T09:17:43.713Z,43.10
2018-07-09T09:20:11.135Z,43.10
2018-07-09T09:22:38.725Z,43.90
2018-07-09T09:25:06.182Z,44.00
2018-07-09T09:27:33.624Z,43.60
2018-07-09T09:30:01.051Z,44.30
2018-07-09T09:32:28.905Z,44.20
2018-07-09T09:34:56.319Z,43.30
2018-07-09T09:37:23.849Z,42.20
2018-07-09T09:39:51.248Z,42.60
2018-07-09T09:42:18.940Z,43.80
2018-07-09T09:44:46.386Z,43.80
2018-07-09T09:47:13.883Z,42.70
2018-07-09T09:49:41.290Z,42.70
2018-07-09T09:52:08.679Z,42.20
2018-07-09T09:54:36.100Z,42.60
2018-07-09T09:57:03.667Z,41.10
2018-07-09T09:59:31.093Z,41.30
2018-07-09T10:01:58.505Z,41.80
2018-07-09T10:04:25.888Z,42.60
2018-07-09T10:06:53.349Z,43.40
2018-07-09T10:09:21.179Z,42.20
2018-07-09T10:11:48.623Z,42.00
2018-07-09T10:14:16.016Z,41.50
2018-07-09T10:16:43.915Z,41.50
2018-07-09T10:19:11.419Z,40.60
2018-07-09T10:21:38.883Z,40.00
2018-07-09T10:24:06.966Z,39.90
2018-07-09T10:26:34.812Z,40.50
2018-07-09T10:29:02.279Z,40.80
2018-07-09T10:31:29.725Z,40.40
2018-07-09T10:33:57.119Z,40.40
2018-07-09T10:36:24.508Z,41.00
2018-07-09T10:38:51.971Z,41.40
2018-07-09T10:41:19.347Z,41.50
2018-07-09T10:43:46.758Z,41.20
2018-07-09T10:46:14.197Z,41.20
2018-07-09T10:48:41.639Z,41.60
2018-07-09T10:51:09.896Z,42.10
2018-07-09T10:53:37.295Z,42.10
2018-07-09T10:56:05.185Z,41.10
2018-07-09T10:58:32.688Z,39.80
2018-07-09T11:01:00.140Z,39.60
2018-07-09T11:03:27.547Z,39.00
2018-07-09T11:05:54.996Z,38.70
2018-07-09T11:08:22.403Z,39.10
2018-07-09T11:10:49.844Z,39.60
2018-07-09T11:13:17.273Z,39.20
2018-07-09T11:15:44.723Z,39.30
2018-07-09T11:18:12.125Z,39.10
2018-07-09T11:20:39.560Z,38.70
2018-07-09T11:23:07.000Z,39.40
2018-07-09T11:25:34.611Z,38.40
2018-07-09T11:28:02.020Z,39.00
2018-07-09T11:30:29.463Z,38.60
2018-07-09T11:32:56.876Z,38.30
2018-07-09T11:35:24.272Z,38.60
2018-07-09T11:37:51.715Z,38.50
2018-07-09T11:40:19.135Z,39.30
2018-07-09T11:42:46.542Z,39.80
2018-07-09T11:45:13.974Z,40.00
2018-07-09T11:47:41.432Z,39.20
2018-07-09T11:50:08.883Z,39.10
2018-07-09T11:52:36.267Z,38.20
2018-07-09T11:55:03.826Z,38.50
2018-07-09T11:57:31.288Z,38.20
2018-07-09T11:59:58.755Z,38.80
2018-07-09T12:02:26.182Z,38.60
2018-07-09T12:04:53.667Z,38.40
2018-07-09T12:07:21.052Z,38.90
2018-07-09T12:09:48.476Z,39.00
2018-07-09T12:12:15.889Z,39.10
2018-07-09T12:14:43.314Z,39.30
2018-07-09T12:17:10.751Z,38.40
2018-07-09T12:19:38.151Z,38.40
2018-07-09T12:22:05.631Z,38.20
2018-07-09T12:24:33.040Z,38.20
2018-07-09T12:27:00.501Z,38.70
2018-07-09T12:29:27.899Z,39.10
2018-07-09T12:31:55.304Z,39.80
2018-07-09T12:34:22.754Z,40.10
2018-07-09T12:36:50.207Z,40.30
2018-07-09T12:39:17.606Z,40.70
2018-07-09T12:41:45.019Z,40.80
2018-07-09T12:44:12.913Z,40.70
2018-07-09T12:46:40.425Z,41.00
2018-07-09T12:49:11.727Z,41.40
2018-07-09T12:51:39.616Z,41.30
2018-07-09T12:54:07.079Z,41.20
2018-07-09T12:56:34.943Z,41.70
2018-07-09T12:59:02.823Z,41.80
2018-07-09T13:01:30.315Z,41.60
2018-07-09T13:03:57.710Z,41.90
2018-07-09T13:06:25.093Z,42.00
2018-07-09T13:08:52.498Z,42.30
2018-07-09T13:11:19.987Z,41.80
2018-07-09T13:13:47.411Z,42.00
2018-07-09T13:16:14.814Z,42.30
2018-07-09T13:18:42.248Z,42.40
2018-07-09T13:21:09.684Z,42.60
2018-07-09T13:23:37.161Z,42.70
2018-07-09T13:26:04.679Z,42.80
2018-07-09T13:28:32.131Z,42.70
2018-07-09T13:30:59.625Z,42.80
2018-07-09T13:33:27.038Z,42.70
2018-07-09T13:35:54.522Z,42.40
2018-07-09T13:38:21.971Z,42.50
2018-07-09T13:40:49.421Z,42.20
2018-07-09T13:43:17.089Z,41.90
2018-07-09T13:45:44.484Z,42.00
2018-07-09T13:48:11.944Z,42.10
2018-07-09T13:50:39.415Z,42.40
2018-07-09T13:53:06.836Z,42.40
2018-07-09T13:55:34.364Z,42.40
2018-07-09T13:58:01.857Z,42.50
2018-07-09T14:00:29.271Z,42.70
2018-07-09T14:02:56.714Z,42.90
2018-07-09T14:05:24.119Z,43.20
2018-07-09T14:07:51.527Z,43.90
2018-07-09T14:10:19.053Z,44.80
2018-07-09T14:12:46.396Z,44.50
2018-07-09T14:15:13.818Z,44.60
2018-07-09T14:17:42.078Z,45.10
2018-07-09T14:20:26.033Z,45.30
2018-07-09T14:22:53.752Z,46.00
2018-07-09T14:25:22.787Z,46.70
2018-07-09T14:27:50.420Z,47.50
2018-07-09T14:30:19.437Z,47.50
2018-07-09T14:32:47.326Z,47.70
2018-07-09T14:35:16.874Z,47.90
2018-07-09T14:37:44.549Z,48.20
2018-07-09T14:40:12.880Z,48.10
2018-07-09T14:42:40.320Z,48.00
2018-07-09T14:45:09.941Z,48.00
2018-07-09T14:47:37.370Z,47.60
2018-07-09T14:50:04.802Z,47.30
2018-07-09T14:52:32.227Z,46.90
2018-07-09T14:54:59.928Z,46.40
2018-07-09T14:57:27.449Z,46.30
2018-07-09T14:59:54.893Z,45.40
2018-07-09T15:02:22.433Z,44.40
2018-07-09T15:04:50.652Z,44.30
2018-07-09T15:07:18.119Z,44.30
2018-07-09T15:09:45.538Z,43.70
2018-07-09T15:12:12.929Z,42.90
2018-07-09T15:14:40.284Z,42.90
2018-07-09T15:17:08.040Z,43.20
2018-07-09T15:19:35.491Z,43.60
2018-07-09T15:22:02.936Z,43.90
2018-07-09T15:24:30.559Z,44.30
2018-07-09T15:26:58.278Z,44.90
2018-07-09T15:29:25.648Z,44.60
2018-07-09T15:32:04.810Z,44.80
2018-07-09T15:34:32.733Z,44.80
2018-07-09T15:37:00.748Z,44.80
2018-07-09T15:41:57.398Z,45.50
2018-07-09T15:44:24.760Z,45.80
2018-07-09T15:46:52.315Z,46.30
2018-07-09T15:49:19.701Z,46.40
2018-07-09T15:51:47.123Z,46.50
2018-07-09T15:54:14.488Z,46.70
2018-07-09T15:56:41.910Z,47.10
2018-07-09T15:59:09.311Z,47.30
2018-07-09T16:01:36.699Z,47.60
2018-07-09T16:04:04.370Z,47.80
2018-07-09T16:06:31.934Z,47.90
2018-07-09T16:08:59.436Z,47.90
2018-07-09T16:11:26.838Z,47.90
2018-07-09T16:13:54.239Z,47.90
2018-07-09T16:16:21.990Z,47.80
2018-07-09T16:18:49.378Z,48.20
2018-07-09T16:21:16.819Z,49.00
2018-07-09T16:23:44.241Z,49.80
2018-07-09T16:26:11.711Z,50.00
2018-07-09T16:28:39.045Z,50.70
2018-07-09T16:31:06.441Z,51.40
2018-07-09T16:33:33.792Z,51.60
2018-07-09T16:36:01.421Z,51.90
2018-07-09T16:38:28.843Z,51.90
2018-07-09T16:40:56.536Z,51.70
2018-07-09T16:43:24.126Z,51.60
2018-07-09T16:45:51.982Z,52.10
2018-07-09T16:48:19.761Z,52.10
2018-07-09T16:50:47.505Z,52.20
2018-07-09T16:53:15.280Z,52.80
2018-07-09T16:55:42.705Z,52.60
2018-07-09T16:58:10.052Z,52.60
2018-07-09T17:00:37.487Z,53.30
2018-07-09T17:03:05.008Z,52.80
2018-07-09T17:05:32.419Z,52.80
2018-07-09T17:07:59.929Z,52.80
2018-07-09T17:10:27.295Z,52.80
2018-07-09T17:12:54.676Z,53.20
2018-07-09T17:15:22.095Z,53.20
2018-07-09T17:17:49.454Z,53.10
2018-07-09T17:20:17.083Z,52.80
2018-07-09T17:22:44.531Z,52.30
2018-07-09T17:25:11.956Z,52.30
2018-07-09T17:27:39.311Z,52.40
2018-07-09T17:30:06.721Z,52.50
2018-07-09T17:32:34.220Z,52.30
2018-07-09T17:35:01.511Z,52.20
2018-07-09T17:37:28.880Z,52.10
2018-07-09T17:42:23.925Z,51.80
2018-07-09T17:44:51.312Z,51.50
2018-07-09T17:47:18.700Z,51.70
2018-07-09T17:49:46.141Z,51.70
2018-07-09T17:52:14.099Z,51.80
2018-07-09T17:54:41.539Z,52.00
2018-07-09T17:57:08.919Z,52.20
2018-07-09T17:59:36.286Z,52.30
2018-07-09T18:02:03.710Z,52.40
2018-07-09T18:04:31.096Z,52.80
2018-07-09T18:06:58.543Z,52.90
2018-07-09T18:09:25.945Z,53.30
2018-07-09T18:11:53.344Z,53.40
2018-07-09T18:14:20.713Z,53.60
2018-07-09T18:16:48.082Z,54.00
2018-07-09T18:19:15.487Z,53.90
2018-07-09T18:21:42.892Z,54.00
2018-07-09T18:24:10.315Z,54.40
2018-07-09T18:26:37.702Z,54.40
2018-07-09T18:29:05.050Z,54.50
2018-07-09T18:31:32.426Z,54.70
2018-07-09T18:33:59.884Z,54.80
2018-07-09T18:36:27.318Z,54.90
2018-07-09T18:38:54.828Z,55.00
2018-07-09T18:41:22.179Z,55.40
2018-07-09T18:43:49.570Z,55.60
2018-07-09T18:46:16.991Z,56.00
2018-07-09T18:48:44.510Z,55.80
2018-07-09T18:51:11.771Z,55.50
2018-07-09T18:53:39.174Z,55.60
2018-07-09T18:56:06.552Z,55.60
2018-07-09T18:58:34.142Z,55.60
2018-07-09T19:01:01.372Z,55.50
2018-07-09T19:03:28.785Z,55.60
2018-07-09T19:07:02.821Z,55.80
2018-07-09T19:09:30.927Z,55.70
2018-07-09T19:12:00.448Z,56.10
2018-07-09T19:14:35.252Z,56.50
2018-07-09T19:17:48.919Z,56.90
2018-07-09T19:20:27.948Z,57.20
2018-07-09T19:22:54.391Z,57.50
2018-07-09T19:25:20.853Z,57.90
2018-07-09T19:27:47.349Z,57.90
2018-07-09T19:30:13.805Z,57.90
2018-07-09T19:32:40.392Z,57.70
2018-07-09T19:35:06.861Z,58.00
2018-07-09T19:37:33.560Z,58.20
2018-07-09T19:39:59.767Z,58.00
2018-07-09T19:42:26.212Z,58.10
2018-07-09T19:44:52.665Z,57.90
2018-07-09T19:47:19.296Z,58.00
2018-07-09T19:49:45.723Z,58.00
2018-07-09T19:52:12.169Z,58.00
2018-07-09T19:54:38.575Z,57.80
2018-07-09T19:57:05.019Z,57.80
2018-07-09T19:59:31.555Z,58.10
2018-07-09T20:01:58.002Z,57.80
2018-07-09T20:04:24.469Z,57.50
2018-07-09T20:06:50.919Z,57.40
2018-07-09T20:09:22.974Z,57.40
2018-07-09T20:11:50.494Z,57.30
2018-07-09T20:14:22.705Z,57.30
2018-07-09T20:16:54.927Z,57.20
2018-07-09T20:19:21.401Z,57.20
2018-07-09T20:21:47.798Z,57.20
2018-07-09T20:24:14.208Z,57.20
2018-07-09T20:26:40.639Z,57.30
2018-07-09T20:29:07.059Z,57.30
2018-07-09T20:31:33.469Z,57.30
2018-07-09T20:33:59.876Z,57.20
2018-07-09T20:36:26.363Z,57.50
2018-07-09T20:38:52.772Z,57.40
2018-07-09T20:41:19.556Z,56.90
2018-07-09T20:43:46.214Z,56.50
2018-07-09T20:46:12.657Z,56.00
2018-07-09T20:48:39.128Z,55.80
2018-07-09T20:51:05.591Z,55.60
2018-07-09T20:53:32.070Z,55.50
2018-07-09T20:55:58.582Z,55.50
2018-07-09T20:58:25.123Z,55.50
2018-07-09T21:00:51.520Z,55.50
2018-07-09T21:03:17.923Z,55.40
2018-07-09T21:05:44.375Z,55.10
2018-07-09T21:08:10.860Z,54.70
2018-07-09T21:10:37.355Z,54.40
2018-07-09T21:13:03.832Z,54.00
2018-07-09T21:15:30.301Z,53.90
2018-07-09T21:17:56.723Z,53.80
2018-07-09T21:20:23.215Z,53.80
2018-07-09T21:22:49.688Z,54.10
2018-07-09T21:25:16.912Z,54.10
2018-07-09T21:27:43.322Z,55.10
2018-07-09T21:30:09.807Z,54.60
2018-07-09T21:32:36.318Z,54.70
2018-07-09T21:35:02.736Z,54.70
2018-07-09T21:37:29.325Z,54.90
2018-07-09T21:39:55.719Z,54.80
2018-07-09T21:42:22.112Z,54.70
2018-07-09T21:44:50.461Z,54.50
2018-07-09T21:47:16.859Z,54.30
2018-07-09T21:49:43.267Z,54.10
2018-07-09T21:52:09.666Z,54.00
2018-07-09T21:54:36.074Z,53.90
2018-07-09T21:57:02.504Z,53.60
2018-07-09T21:59:28.899Z,53.40
2018-07-09T22:01:55.311Z,53.30
2018-07-09T22:04:21.722Z,53.20
2018-07-09T22:06:48.123Z,53.00
2018-07-09T22:09:14.527Z,52.80
2018-07-09T22:11:40.943Z,52.80
2018-07-09T22:14:07.339Z,52.80
2018-07-09T22:16:33.741Z,52.90
2018-07-09T22:19:00.435Z,52.90
2018-07-09T22:21:27.015Z,52.80
2018-07-09T22:23:53.417Z,52.50
2018-07-09T22:26:19.819Z,52.60
2018-07-09T22:28:46.211Z,52.60
2018-07-09T22:31:13.588Z,52.50
2018-07-09T22:33:40.987Z,52.50
2018-07-09T22:36:08.347Z,52.50
2018-07-09T22:38:35.743Z,52.70
2018-07-09T22:41:03.127Z,52.70
2018-07-09T22:43:42.092Z,52.80
2018-07-09T22:46:09.473Z,53.00
2018-07-09T22:48:36.821Z,53.10
2018-07-09T22:51:04.348Z,53.30
2018-07-09T22:53:31.672Z,53.40
2018-07-09T22:56:11.024Z,53.70
2018-07-09T22:58:39.571Z,53.70
2018-07-09T23:01:06.955Z,53.80
2018-07-09T23:03:34.984Z,53.80
2018-07-09T23:06:02.668Z,54.00
2018-07-09T23:08:30.108Z,54.10
2018-07-09T23:13:17.442Z,54.10
2018-07-09T23:16:56.210Z,54.40
2018-07-09T23:22:13.616Z,55.00
2018-07-09T23:24:40.098Z,55.10
2018-07-09T23:27:06.516Z,55.20
2018-07-09T23:29:32.978Z,55.20
2018-07-09T23:31:59.410Z,55.30
2018-07-09T23:34:25.859Z,55.30
2018-07-09T23:36:52.483Z,55.10
2018-07-09T23:39:18.923Z,55.30
2018-07-09T23:41:45.363Z,55.30
2018-07-09T23:44:11.826Z,55.30
2018-07-09T23:46:38.279Z,55.10
2018-07-09T23:53:58.632Z,55.20
